Weather observations for the past three days for
Fort Eustis / Felker
Metric (Imperial)
Date Time (edt) Wind (kph) Vis. (km) Weather Sky Cond. Temperature (ºC) Relative Humidity Wind Chill (°C) Heat Index (°C) Pressure Precipitation (cm)
Air Dwpt 6 hour altimeter (cm) sea level (mb) 1 hr 3 hr 6 hr
Max. Min.
01 16:55 W 6 16.09 Partly Cloudy FEW050 SCT250 35.1 17.7 36% 36 76.15 1015.6
01 15:55 W 7 16.09 A Few Clouds FEW050 FEW250 34.4 18.8 40% 36 76.15 1015.6
01 14:55 S 9 16.09 A Few Clouds FEW050 FEW250 34.4 21.1 46% 38 76.17 1015.9
01 13:55 NW 9 16.09 Partly Cloudy SCT060 34 20.3 34 25.3 45% 37 76.23 1016.6
01 12:55 Calm 16.09 A Few Clouds FEW050 33.2 22 52% 37 76.23 1016.6
01 11:55 NW 6 16.09 Fair CLR 31.4 20.6 53% 34 76.3 1017.6
01 10:55 N 7 16.09 Partly Cloudy SCT110 29.2 22.4 67% 33 76.33 1017.9
01 09:55 NW 9 16.09 Partly Cloudy FEW100 SCT250 27.9 22.6 73% 31 76.33 1017.9
01 08:55 NW 9 16.09 Partly Cloudy SCT100 26.5 22.1 77% 28 76.33 1017.9
01 07:55 W 6 16.09 A Few Clouds FEW100 FEW250 25.2 22.3 26.4 23.8 84% 26 76.33 1017.9
01 06:55 W 6 16.09 A Few Clouds FEW110 25.7 23.1 86% 27 76.3 1017.6
01 05:55 W 7 16.09 A Few Clouds FEW050 25.5 23 86% 27 76.28 1017.3
01 04:55 SW 9 16.09 Fair CLR 24.8 21.9 84% 25 76.28 1017.3
01 03:55 S 7 16.09 Fair CLR 24.9 22.2 85% 26 76.3 1017.6
01 02:55 S 9 16.09 Fair CLR 25.8 22.5 82% 27 76.33 1017.9
01 01:55 S 11 16.09 Mostly Cloudy BKN080 26.5 22.7 27.8 24.9 80% 29 76.35 1018.3
01 00:55 S 9 16.09 Fair CLR 25.5 21.8 80% 27 76.38 1018.6
31 23:55 Calm 16.09 Fair CLR 25.6 23.4 88% 27 76.38 1018.6
31 22:55 Calm 16.09 A Few Clouds FEW160 25.1 22.6 86% 26 76.38 1018.6
31 21:55 Calm 16.09 Mostly Cloudy BKN100 BKN160 26.2 22.4 80% 28 76.38 1018.6
31 20:55 N 11 16.09 Mostly Cloudy FEW026 BKN060 BKN090 27.7 22.4 73% 30 76.38 1018.6
31 18:55 S 6 16.09 Partly Cloudy SCT050 SCT080 SCT250 28.7 21.2 64% 31 76.3 1017.6
31 17:55 S 11 16.09 Thunderstorm in Vicinity FEW050 FEW250 28.9 20.6 61% 31 76.33 1017.9
31 16:55 S 9 16.09 Thunderstorm FEW050 SCT110 29.2 21.4 63% 32 76.33 1017.9
31 15:55 SW 19 G 28 16.09 Thunderstorm FEW035 FEW042 SCT055 SCT095 27.8 21.6 69% 30 76.35 1018.3
31 14:55 S 9 16.09 Showers in Vicinity SCT040 SCT100 33.7 21.8 50% 38 76.33 1017.9
31 13:55 S 6 16.09 Partly Cloudy SCT050 32.3 21.8 32.3 25.4 54% 36 76.35 1018.3
31 12:55 N 9 16.09 Partly Cloudy SCT050 31.8 21.6 55% 35 76.38 1018.6
31 11:55 Calm 16.09 A Few Clouds FEW050 30.3 21.4 59% 33 76.43 1019.3
31 10:55 W 6 16.09 Fair CLR 29.8 21.2 60% 32 76.45 1019.6
31 09:55 N 9 16.09 Fair CLR 28.2 21.9 69% 31 76.43 1019.3
31 08:55 NW 11 16.09 A Few Clouds FEW100 26.4 21.4 74% 28 76.43 1019.3
31 07:55 SW 6 16.09 Mostly Cloudy BKN100 25.3 21.6 25.5 23.4 80% 26 76.43 1019.3
31 06:55 W 6 16.09 Partly Cloudy SCT065 24.7 21.8 84% 25 76.43 1019.3
31 05:55 Calm 16.09 A Few Clouds FEW100 24.4 21.5 84% 25 76.4 1018.9
31 04:55 W 6 16.09 Fair CLR 24.3 22 87% 24 76.4 1018.9
31 03:55 S 7 16.09 Fair CLR 24.7 22.2 86% 25 76.4 1018.9
31 02:55 Calm 16.09 Fair CLR 25 22.3 85% 26 76.43 1019.3
31 01:55 SW 6 16.09 Fair CLR 25.3 22.2 28.5 25.2 83% 26 76.4 1018.9
31 00:55 S 7 16.09 Fair CLR 25.6 22.7 84% 27 76.45 1019.6
30 23:55 S 9 16.09 Fair CLR 26.1 22.7 82% 28 76.45 1019.6
30 22:55 S 11 16.09 Fair CLR 26.5 22.7 80% 29 76.45 1019.6
30 21:55 S 7 16.09 Fair CLR 27.1 22.9 78% 30 76.48 1020.0
30 20:55 S 17 16.09 Fair CLR 28 22.7 73% 31 76.48 1020.0
30 19:55 S 15 16.09 Fair CLR 27.7 23 31.9 27.7 76% 31 76.43 1019.3
30 18:55 SE 15 16.09 Fair CLR 29.3 23 69% 33 76.45 1019.6
30 17:55 SE 19 16.09 Fair CLR 31.1 22.9 62% 35 76.43 1019.3
30 16:55 S 9 16.09 Fair CLR 31.1 21.5 57% 34 76.43 1019.3
30 15:55 SE 9 16.09 Fair CLR 31.2 20.4 53% 34 76.45 1019.6
30 14:55 SE 7 16.09 A Few Clouds FEW040 30.6 20.5 55% 33 76.53 1020.6
30 13:55 S 7 16.09 Fair CLR 30.1 21.2 30.3 24.8 59% 33 76.58 1021.3
30 12:55 S 7 16.09 Fair CLR 29.3 21 61% 32 76.61 1021.7
30 11:55 S 7 16.09 Fair CLR 27.9 20.9 66% 30 76.66 1022.3
30 10:55 SE 9 16.09 Fair CLR 28 20.8 65% 30 76.68 1022.7
30 09:55 S 6 16.09 Partly Cloudy SCT022 26.3 21.9 77% 28 76.68 1022.7
30 08:55 SE 6 16.09 Fair CLR 25.7 21.3 77% 27 76.71 1023.0
30 07:55 Calm 16.09 Fair CLR 24.8 22.1 25.8 22.4 85% 25 76.73 1023.4
30 06:55 SE 6 16.09 Fair CLR 24.6 23.5 94% 25 76.71 1023.0
30 05:55 Calm 16.09 Fair CLR 24.7 23.5 93% 25 76.68 1022.7
30 04:55 Calm 16.09 Fair CLR 24.7 23.5 93% 25 76.68 1022.7
30 03:55 Calm 16.09 Fair CLR 25.5 24.1 92% 27 76.68 1022.7
30 02:55 E 6 16.09 Fair CLR 22.8 21.4 92% 76.68 1022.7
30 01:55 Calm 16.09 A Few Clouds FEW019 23.2 21.3 25.9 23.1 89% 76.71 1023.0
30 00:55 E 6 16.09 A Few Clouds FEW021 23.7 21.4 87% 76.73 1023.4
29 23:55 E 6 16.09 A Few Clouds FEW020 24.3 21.6 85% 25 76.73 1023.4
29 22:55 SE 6 16.09 Partly Cloudy SCT017 24 21.3 85% 24 76.68 1022.7
29 21:55 E 6 16.09 Fair CLR 24.4 21.5 84% 25 76.71 1023.0
29 20:55 E 6 16.09 A Few Clouds FEW014 25 21.7 82% 26 76.66 1022.3
29 19:55 E 9 16.09 A Few Clouds FEW017 24.9 20.8 29.3 24.9 78% 26 76.61 1021.7
29 18:55 E 9 16.09 Fair CLR 26.6 21.1 72% 28 76.61 1021.7
29 17:55 E 13 16.09 Fair CLR 26.3 19.4 66% 28 76.61 1021.7
Date Time (edt) Wind (kph) Vis. (km) Weather Sky Cond. Air Dwpt Max. Min. Relative Humidity Wind Chill (°C) Heat Index (°C) altimeter (cm) sea level (mb) 1 hr 3 hr 6 hr
6 hour
Temperature (ºC) Pressure Precipitation (cm)